Canton, South Dakota
Current Conditions -  °F | °C
As of 6:56 PM on Friday 24 Oct 2014 (Local Time) from KFSD Reporting Station
Scattered Clouds Scattered Clouds  
Wind Chill: 62°   Ceiling: Unl
Heat Index: 62°   Visibility: 10mi
Dew Point: 42°   Wind: 6mph
Humidity: 48%   Direction: 300°WNW
Pressure: 29.93"   Gusts: NA
Location:  43.3°N, 96.59°W
Report Text: KFSD 242356Z 30005KT 10SM SCT230 17/06 A2993 RMK AO2 SLP137 T01670056 10244 20167 53015
Loading
Personal Weather Stations






























Interactive Weather Map
Tropical Storm Tracking
New forecast layout! Learn more

10-Day Weather Forecast

Advertisements
Track Severe Weather on mobile